createdAt,value
2018-11-07T00:01:58.991Z,10.14
2018-11-07T00:04:27.424Z,10.15
2018-11-07T00:06:55.866Z,10.14
2018-11-07T00:09:24.276Z,10.14
2018-11-07T00:11:52.836Z,10.14
2018-11-07T00:14:21.289Z,10.17
2018-11-07T00:16:49.717Z,10.19
2018-11-07T00:19:18.192Z,10.20
2018-11-07T00:21:46.666Z,10.23
2018-11-07T00:24:15.144Z,10.36
2018-11-07T00:26:43.567Z,10.40
2018-11-07T00:29:12.447Z,10.47
2018-11-07T00:31:41.038Z,10.51
2018-11-07T00:34:09.421Z,10.52
2018-11-07T00:36:37.836Z,10.52
2018-11-07T00:39:07.886Z,10.55
2018-11-07T00:41:36.389Z,10.57
2018-11-07T00:44:04.974Z,10.58
2018-11-07T00:46:33.595Z,10.55
2018-11-07T00:49:02.187Z,10.58
2018-11-07T00:51:30.920Z,10.65
2018-11-07T00:53:59.378Z,10.71
2018-11-07T00:56:27.796Z,10.74
2018-11-07T00:58:56.288Z,10.78
2018-11-07T01:01:24.714Z,10.78
2018-11-07T01:03:53.161Z,10.83
2018-11-07T01:06:21.565Z,10.87
2018-11-07T01:08:50.586Z,10.87
2018-11-07T01:11:19.008Z,10.87
2018-11-07T01:13:47.441Z,10.93
2018-11-07T01:16:15.964Z,10.93
2018-11-07T01:18:44.395Z,10.94
2018-11-07T01:21:12.856Z,10.99
2018-11-07T01:23:41.261Z,10.96
2018-11-07T01:26:09.646Z,10.98
2018-11-07T01:28:38.086Z,10.99
2018-11-07T01:31:06.660Z,11.00
2018-11-07T01:33:35.156Z,11.00
2018-11-07T01:36:03.555Z,11.02
2018-11-07T01:38:31.996Z,11.02
2018-11-07T01:41:00.441Z,11.01
2018-11-07T01:43:28.908Z,10.97
2018-11-07T01:45:57.376Z,10.92
2018-11-07T01:48:25.792Z,10.85
2018-11-07T01:50:54.245Z,10.79
2018-11-07T01:53:22.710Z,10.71
2018-11-07T01:55:51.103Z,10.66
2018-11-07T01:58:19.554Z,10.61
2018-11-07T02:00:48.037Z,10.57
2018-11-07T02:03:16.496Z,10.56
2018-11-07T02:05:44.892Z,10.57
2018-11-07T02:08:13.308Z,10.54
2018-11-07T02:10:41.769Z,10.57
2018-11-07T02:13:10.239Z,10.63
2018-11-07T02:15:38.642Z,10.62
2018-11-07T02:18:07.279Z,10.60
2018-11-07T02:20:35.728Z,10.58
2018-11-07T02:23:04.173Z,10.57
2018-11-07T02:25:32.562Z,10.53
2018-11-07T02:28:01.001Z,10.51
2018-11-07T02:30:29.442Z,10.48
2018-11-07T02:32:57.832Z,10.45
2018-11-07T02:35:26.254Z,10.44
2018-11-07T02:37:54.659Z,10.38
2018-11-07T02:40:23.049Z,10.32
2018-11-07T02:42:51.460Z,10.23
2018-11-07T02:45:19.937Z,10.28
2018-11-07T02:47:48.352Z,10.23
2018-11-07T02:50:16.782Z,10.22
2018-11-07T02:52:45.180Z,10.19
2018-11-07T02:55:13.604Z,10.16
2018-11-07T02:57:41.996Z,10.12
2018-11-07T03:00:12.419Z,10.09
2018-11-07T03:02:40.919Z,10.08
2018-11-07T03:05:09.879Z,10.10
2018-11-07T03:07:39.488Z,10.11
2018-11-07T03:10:10.376Z,10.13
2018-11-07T03:12:38.929Z,10.13
2018-11-07T03:15:07.661Z,10.09
2018-11-07T03:17:36.154Z,10.07
2018-11-07T03:20:04.754Z,10.05
2018-11-07T03:22:33.175Z,10.05
2018-11-07T03:25:01.562Z,10.05
2018-11-07T03:27:29.988Z,10.06
2018-11-07T03:29:58.415Z,10.05
2018-11-07T03:32:26.822Z,10.04
2018-11-07T03:34:55.245Z,10.06
2018-11-07T03:37:23.652Z,10.05
2018-11-07T03:39:52.169Z,10.04
2018-11-07T03:42:20.456Z,10.01
2018-11-07T03:44:48.861Z,10.00
2018-11-07T03:47:17.257Z,9.97
2018-11-07T03:49:45.660Z,9.96
2018-11-07T03:52:14.085Z,9.96
2018-11-07T03:54:42.527Z,9.95
2018-11-07T03:57:12.093Z,9.97
2018-11-07T03:59:40.552Z,10.00
2018-11-07T04:02:08.951Z,10.04
2018-11-07T04:04:37.361Z,10.06
2018-11-07T04:07:06.193Z,10.05
2018-11-07T04:09:34.650Z,10.05
2018-11-07T04:12:03.082Z,10.02
2018-11-07T04:14:31.507Z,9.99
2018-11-07T04:16:59.917Z,9.98
2018-11-07T04:19:28.968Z,9.98
2018-11-07T04:21:57.467Z,9.97
2018-11-07T04:24:25.863Z,9.94
2018-11-07T04:26:54.252Z,9.95
2018-11-07T04:29:22.656Z,9.92
2018-11-07T04:31:51.064Z,9.89
2018-11-07T04:34:19.473Z,9.87
2018-11-07T04:36:47.906Z,9.87
2018-11-07T04:39:16.360Z,9.88
2018-11-07T04:41:44.725Z,9.86
2018-11-07T04:44:13.130Z,9.85
2018-11-07T04:46:41.511Z,9.83
2018-11-07T04:49:09.982Z,9.84
2018-11-07T04:51:38.436Z,9.82
2018-11-07T04:54:06.872Z,9.81
2018-11-07T04:56:35.256Z,9.56
2018-11-07T05:01:31.076Z,9.77
2018-11-07T05:03:59.490Z,9.76
2018-11-07T05:06:27.873Z,9.74
2018-11-07T05:08:56.274Z,9.74
2018-11-07T05:11:24.739Z,9.76
2018-11-07T05:13:53.129Z,9.74
2018-11-07T05:16:21.557Z,9.72
2018-11-07T05:18:50.044Z,9.68
2018-11-07T05:21:18.436Z,9.68
2018-11-07T05:23:46.848Z,9.67
2018-11-07T05:26:15.278Z,9.67
2018-11-07T05:28:43.672Z,9.67
2018-11-07T05:31:12.068Z,9.66
2018-11-07T05:33:40.526Z,9.67
2018-11-07T05:36:08.981Z,9.64
2018-11-07T05:38:37.398Z,9.65
2018-11-07T05:41:06.020Z,9.64
2018-11-07T05:43:34.423Z,9.63
2018-11-07T05:46:02.842Z,9.61
2018-11-07T05:48:31.264Z,9.59
2018-11-07T05:50:59.651Z,9.61
2018-11-07T05:53:28.092Z,9.60
2018-11-07T05:55:56.534Z,9.59
2018-11-07T05:58:24.955Z,9.59
2018-11-07T06:00:53.430Z,9.58
2018-11-07T06:03:21.859Z,9.60
2018-11-07T06:05:50.274Z,9.58
2018-11-07T06:08:18.677Z,9.56
2018-11-07T06:10:47.134Z,9.55
2018-11-07T06:13:15.567Z,9.53
2018-11-07T06:15:44.084Z,9.51
2018-11-07T06:18:12.496Z,9.49
2018-11-07T06:20:41.049Z,9.47
2018-11-07T06:23:09.513Z,9.49
2018-11-07T06:25:37.993Z,9.51
2018-11-07T06:28:06.403Z,9.50
2018-11-07T06:30:34.838Z,9.50
2018-11-07T06:33:03.261Z,9.45
2018-11-07T06:35:31.642Z,9.40
2018-11-07T06:38:00.089Z,9.35
2018-11-07T06:40:29.230Z,9.33
2018-11-07T06:42:57.679Z,9.32
2018-11-07T06:45:26.187Z,9.30
2018-11-07T06:47:55.496Z,9.27
2018-11-07T06:50:23.947Z,9.27
2018-11-07T06:52:52.390Z,9.26
2018-11-07T06:55:20.842Z,9.23
2018-11-07T06:57:49.251Z,9.24
2018-11-07T07:00:18.208Z,9.25
2018-11-07T07:02:47.743Z,9.28
2018-11-07T07:05:16.478Z,9.31
2018-11-07T07:07:44.906Z,9.34
2018-11-07T07:10:15.692Z,9.38
2018-11-07T07:12:44.110Z,9.44
2018-11-07T07:15:14.163Z,9.46
2018-11-07T07:17:42.791Z,9.49
2018-11-07T07:20:13.855Z,9.56
2018-11-07T07:22:42.984Z,9.62
2018-11-07T07:25:12.514Z,9.59
2018-11-07T07:27:41.566Z,9.58
2018-11-07T07:30:12.850Z,9.57
2018-11-07T07:32:43.480Z,9.63
2018-11-07T07:35:12.454Z,9.66
2018-11-07T07:37:40.905Z,9.66
2018-11-07T07:40:10.955Z,9.74
2018-11-07T07:42:40.392Z,9.78
2018-11-07T07:45:11.151Z,9.79
2018-11-07T07:47:40.114Z,9.83
2018-11-07T07:50:10.381Z,9.84
2018-11-07T07:52:38.955Z,9.83
2018-11-07T07:55:07.984Z,9.88
2018-11-07T07:57:36.847Z,9.90
2018-11-07T08:00:10.258Z,9.99
2018-11-07T08:02:39.031Z,9.95
2018-11-07T08:05:07.529Z,9.94
2018-11-07T08:07:35.953Z,9.95
2018-11-07T08:10:05.992Z,10.09
2018-11-07T08:12:34.417Z,10.17
2018-11-07T08:15:02.870Z,10.19
2018-11-07T08:17:31.306Z,10.15
2018-11-07T08:19:59.701Z,10.13
2018-11-07T08:22:28.189Z,10.12
2018-11-07T08:24:56.621Z,10.18
2018-11-07T08:27:25.141Z,10.30
2018-11-07T08:29:53.618Z,10.33
2018-11-07T08:32:22.203Z,10.38
2018-11-07T08:34:50.692Z,10.37
2018-11-07T08:37:19.268Z,10.47
2018-11-07T08:39:47.652Z,10.62
2018-11-07T08:42:16.193Z,10.71
2018-11-07T08:44:44.602Z,10.70
2018-11-07T08:47:13.040Z,10.72
2018-11-07T08:49:41.518Z,10.82
2018-11-07T08:52:10.047Z,10.92
2018-11-07T08:54:38.468Z,10.95
2018-11-07T08:57:07.047Z,10.93
2018-11-07T08:59:35.538Z,10.94
2018-11-07T09:02:04.010Z,10.92
2018-11-07T09:04:32.421Z,10.99
2018-11-07T09:07:00.829Z,11.06
2018-11-07T09:09:29.252Z,11.05
2018-11-07T09:11:57.697Z,11.01
2018-11-07T09:14:26.121Z,11.04
2018-11-07T09:16:54.553Z,11.06
2018-11-07T09:19:22.976Z,11.12
2018-11-07T09:21:51.645Z,11.12
2018-11-07T09:24:20.121Z,11.15
2018-11-07T09:26:48.554Z,11.19
2018-11-07T09:29:17.052Z,11.30
2018-11-07T09:31:45.401Z,11.29
2018-11-07T09:34:13.889Z,11.39
2018-11-07T09:36:42.383Z,11.40
2018-11-07T09:39:11.502Z,11.53
2018-11-07T09:41:39.982Z,11.52
2018-11-07T09:44:08.410Z,11.47
2018-11-07T09:46:36.917Z,11.55
2018-11-07T09:49:05.390Z,11.55
2018-11-07T09:51:33.849Z,11.66
2018-11-07T09:54:02.973Z,11.80
2018-11-07T09:56:31.360Z,11.89
2018-11-07T09:59:00.230Z,11.89
2018-11-07T10:01:28.646Z,11.94
2018-11-07T10:03:57.140Z,12.00
2018-11-07T10:06:25.611Z,12.05
2018-11-07T10:08:54.098Z,12.14
2018-11-07T10:11:22.557Z,12.11
2018-11-07T10:13:50.997Z,12.07
2018-11-07T10:16:19.494Z,12.03
2018-11-07T10:18:47.934Z,12.07
2018-11-07T10:21:16.353Z,12.05
2018-11-07T10:23:44.781Z,12.06
2018-11-07T10:26:13.258Z,12.14
2018-11-07T10:28:41.997Z,12.37
2018-11-07T10:31:10.134Z,12.52
2018-11-07T10:33:38.586Z,12.61
2018-11-07T10:36:07.038Z,12.67
2018-11-07T10:38:35.603Z,12.71
2018-11-07T10:41:04.028Z,12.77
2018-11-07T10:43:32.453Z,12.75
2018-11-07T10:46:00.913Z,12.80
2018-11-07T10:48:29.341Z,12.87
2018-11-07T10:50:57.789Z,12.91
2018-11-07T10:53:26.276Z,12.91
2018-11-07T10:55:54.706Z,12.85
2018-11-07T10:58:23.090Z,12.72
2018-11-07T11:00:56.918Z,12.60
2018-11-07T11:03:30.608Z,12.53
2018-11-07T11:05:59.222Z,12.60
2018-11-07T11:08:27.706Z,12.66
2018-11-07T11:10:56.146Z,12.73
2018-11-07T11:13:25.928Z,12.88
2018-11-07T11:15:54.355Z,13.04
2018-11-07T11:18:22.809Z,13.00
2018-11-07T11:20:51.281Z,13.00
2018-11-07T11:23:19.798Z,13.14
2018-11-07T11:25:49.365Z,13.30
2018-11-07T11:28:17.755Z,13.31
2018-11-07T11:30:46.382Z,13.31
2018-11-07T11:33:14.816Z,13.39
2018-11-07T11:35:43.242Z,13.34
2018-11-07T11:38:11.705Z,13.46
2018-11-07T11:40:40.163Z,13.53
2018-11-07T11:43:08.844Z,13.53
2018-11-07T11:45:37.324Z,13.70
2018-11-07T11:48:05.817Z,13.61
2018-11-07T11:50:34.247Z,13.59
2018-11-07T11:53:02.712Z,13.66
2018-11-07T11:55:31.144Z,13.72
2018-11-07T11:57:59.587Z,13.87
2018-11-07T12:00:28.067Z,13.80
2018-11-07T12:02:56.563Z,13.84
2018-11-07T12:05:25.017Z,13.72
2018-11-07T12:07:53.453Z,13.89
2018-11-07T12:10:23.203Z,13.98
2018-11-07T12:12:52.854Z,14.15
2018-11-07T12:15:22.620Z,14.21
2018-11-07T12:17:51.112Z,14.21
2018-11-07T12:20:19.645Z,14.18
2018-11-07T12:22:48.142Z,14.10
2018-11-07T12:25:17.298Z,14.06
2018-11-07T12:27:45.893Z,14.11
2018-11-07T12:30:17.418Z,14.19
2018-11-07T12:32:46.928Z,14.21
2018-11-07T12:35:16.153Z,14.25
2018-11-07T12:37:44.567Z,14.32
2018-11-07T12:40:13.493Z,14.21
2018-11-07T12:42:42.009Z,14.22
2018-11-07T12:45:12.058Z,14.17
2018-11-07T12:47:40.784Z,14.23
2018-11-07T12:50:12.991Z,14.17
2018-11-07T12:52:41.423Z,14.23
2018-11-07T12:55:11.231Z,14.28
2018-11-07T12:57:39.838Z,14.37
2018-11-07T13:00:17.381Z,14.50
2018-11-07T13:02:46.482Z,14.71
2018-11-07T13:05:16.197Z,14.88
2018-11-07T13:07:45.635Z,14.96
2018-11-07T13:10:16.127Z,14.86
2018-11-07T13:12:45.401Z,14.73
2018-11-07T13:15:14.432Z,14.79
2018-11-07T13:17:42.938Z,14.78
2018-11-07T13:20:13.762Z,14.73
2018-11-07T13:22:42.946Z,14.69
2018-11-07T13:25:12.288Z,14.58
2018-11-07T13:27:40.661Z,14.59
2018-11-07T13:30:11.478Z,14.48
2018-11-07T13:32:40.075Z,14.39
2018-11-07T13:35:09.448Z,14.25
2018-11-07T13:37:38.823Z,14.16
2018-11-07T13:40:12.810Z,14.08
2018-11-07T13:42:41.306Z,14.10
2018-11-07T13:45:11.723Z,14.06
2018-11-07T13:47:41.054Z,13.99
2018-11-07T13:50:10.154Z,13.94
2018-11-07T13:52:38.592Z,13.91
2018-11-07T13:55:08.283Z,13.90
2018-11-07T13:57:36.727Z,13.82
2018-11-07T14:00:07.589Z,13.82
2018-11-07T14:02:36.245Z,13.78
2018-11-07T14:05:05.078Z,13.74
2018-11-07T14:07:33.540Z,13.66
2018-11-07T14:10:02.093Z,13.60
2018-11-07T14:12:30.586Z,13.55
2018-11-07T14:14:59.032Z,13.59
2018-11-07T14:17:27.512Z,13.62
2018-11-07T14:19:56.008Z,13.62
2018-11-07T14:22:24.458Z,13.68
2018-11-07T14:24:52.881Z,13.74
2018-11-07T14:27:21.443Z,13.75
2018-11-07T14:29:49.866Z,13.67
2018-11-07T14:32:18.564Z,13.65
2018-11-07T14:34:47.175Z,13.64
2018-11-07T14:37:15.570Z,13.62
2018-11-07T14:39:45.047Z,13.59
2018-11-07T14:42:13.476Z,13.59
2018-11-07T14:44:41.952Z,13.53
2018-11-07T14:47:10.437Z,13.49
2018-11-07T14:49:38.836Z,13.43
2018-11-07T14:52:07.317Z,13.44
2018-11-07T14:54:35.755Z,13.50
2018-11-07T14:57:04.620Z,13.46
2018-11-07T14:59:33.061Z,13.43
2018-11-07T15:02:01.483Z,13.39
2018-11-07T15:04:29.910Z,13.37
2018-11-07T15:06:58.324Z,13.39
2018-11-07T15:09:26.774Z,13.37
2018-11-07T15:11:55.260Z,13.30
2018-11-07T15:14:23.666Z,13.25
2018-11-07T15:16:52.219Z,13.26
2018-11-07T15:19:20.623Z,13.22
2018-11-07T15:21:49.065Z,13.21
2018-11-07T15:24:17.504Z,13.21
2018-11-07T15:26:45.901Z,13.21
2018-11-07T15:29:14.345Z,13.20
2018-11-07T15:31:42.790Z,13.20
2018-11-07T15:34:12.308Z,13.14
2018-11-07T15:36:40.765Z,13.07
2018-11-07T15:39:10.592Z,12.93
2018-11-07T15:41:39.060Z,12.82
2018-11-07T15:44:07.481Z,12.70
2018-11-07T15:46:35.902Z,12.61
2018-11-07T15:49:04.450Z,12.55
2018-11-07T15:51:38.009Z,12.50
2018-11-07T15:54:07.151Z,12.44
2018-11-07T15:56:35.959Z,12.38
2018-11-07T15:59:04.549Z,12.32
2018-11-07T16:01:32.998Z,12.28
2018-11-07T16:04:02.356Z,12.25
2018-11-07T16:06:30.810Z,12.23
2018-11-07T16:09:00.235Z,12.21
2018-11-07T16:11:29.703Z,12.17
2018-11-07T16:13:58.109Z,12.14
2018-11-07T16:16:27.484Z,12.12
2018-11-07T16:18:55.979Z,12.10
2018-11-07T16:21:24.430Z,12.07
2018-11-07T16:23:53.037Z,12.05
2018-11-07T16:26:21.616Z,12.02
2018-11-07T16:28:50.114Z,12.01
2018-11-07T16:31:19.497Z,11.99
2018-11-07T16:33:47.950Z,11.99
2018-11-07T16:36:16.433Z,11.97
2018-11-07T16:38:44.937Z,11.95
2018-11-07T16:41:13.410Z,11.92
2018-11-07T16:43:41.885Z,11.91
2018-11-07T16:46:10.391Z,11.90
2018-11-07T16:48:38.873Z,11.87
2018-11-07T16:51:07.281Z,11.85
2018-11-07T16:53:35.701Z,11.86
2018-11-07T16:56:04.211Z,11.84
2018-11-07T16:58:32.771Z,11.84
2018-11-07T17:01:01.285Z,11.83
2018-11-07T17:03:29.702Z,11.82
2018-11-07T17:05:58.189Z,11.80
2018-11-07T17:08:26.666Z,11.82
2018-11-07T17:10:55.235Z,11.79
2018-11-07T17:13:23.677Z,11.80
2018-11-07T17:15:52.212Z,11.78
2018-11-07T17:18:20.577Z,11.80
2018-11-07T17:20:49.001Z,11.79
2018-11-07T17:23:18.524Z,11.79
2018-11-07T17:25:45.904Z,11.74
2018-11-07T17:28:14.325Z,11.80
2018-11-07T17:30:42.794Z,11.79
2018-11-07T17:33:11.218Z,11.78
2018-11-07T17:35:39.662Z,11.78
2018-11-07T17:38:08.142Z,11.78
2018-11-07T17:40:36.584Z,11.77
2018-11-07T17:43:05.237Z,11.75
2018-11-07T17:45:33.677Z,11.75
2018-11-07T17:48:02.224Z,11.74
2018-11-07T17:50:30.622Z,11.72
2018-11-07T17:52:59.099Z,11.72
2018-11-07T17:55:27.583Z,11.76
2018-11-07T17:57:56.134Z,11.77
2018-11-07T18:00:29.988Z,11.79
2018-11-07T18:02:58.397Z,11.83
2018-11-07T18:05:26.861Z,11.89
2018-11-07T18:07:55.302Z,11.91
2018-11-07T18:10:23.825Z,11.92
2018-11-07T18:12:52.262Z,11.95
2018-11-07T18:15:20.829Z,11.98
2018-11-07T18:17:49.290Z,11.95
2018-11-07T18:20:18.373Z,12.00
2018-11-07T18:22:46.836Z,12.01
2018-11-07T18:25:16.948Z,12.01
2018-11-07T18:27:45.417Z,12.06
2018-11-07T18:30:15.128Z,12.09
2018-11-07T18:32:44.254Z,12.09
2018-11-07T18:35:14.278Z,12.07
2018-11-07T18:37:42.838Z,12.03
2018-11-07T18:40:12.713Z,11.97
2018-11-07T18:42:41.549Z,12.00
2018-11-07T18:45:11.014Z,12.00
2018-11-07T18:47:40.702Z,11.97
2018-11-07T18:50:10.889Z,11.93
2018-11-07T18:52:39.242Z,11.90
2018-11-07T18:55:09.786Z,11.89
2018-11-07T18:57:38.229Z,11.88
2018-11-07T19:00:09.901Z,11.89
2018-11-07T19:02:38.464Z,11.88
2018-11-07T19:05:07.541Z,11.88
2018-11-07T19:07:36.377Z,11.92
2018-11-07T19:10:09.750Z,11.96
2018-11-07T19:12:38.367Z,11.96
2018-11-07T19:15:10.614Z,11.98
2018-11-07T19:17:39.384Z,11.95
2018-11-07T19:20:08.725Z,11.97
2018-11-07T19:22:37.202Z,11.97
2018-11-07T19:25:07.119Z,11.98
2018-11-07T19:27:35.934Z,11.96
2018-11-07T19:30:04.752Z,11.94
2018-11-07T19:32:33.250Z,11.94
2018-11-07T19:35:01.698Z,11.94
2018-11-07T19:37:30.136Z,11.94
2018-11-07T19:39:58.617Z,11.92
2018-11-07T19:42:27.084Z,11.89
2018-11-07T19:44:55.539Z,11.84
2018-11-07T19:47:24.013Z,11.84
2018-11-07T19:49:52.515Z,11.83
2018-11-07T19:52:20.934Z,11.79
2018-11-07T19:54:49.398Z,11.79
2018-11-07T19:57:17.867Z,11.78
2018-11-07T19:59:46.539Z,11.78
2018-11-07T20:02:14.968Z,11.81
2018-11-07T20:04:43.416Z,11.84
2018-11-07T20:07:11.842Z,11.86
2018-11-07T20:09:40.424Z,11.84
2018-11-07T20:12:08.906Z,11.85
2018-11-07T20:14:37.371Z,11.86
2018-11-07T20:17:06.316Z,11.85
2018-11-07T20:19:34.646Z,11.82
2018-11-07T20:22:03.693Z,11.82
2018-11-07T20:24:32.170Z,11.90
2018-11-07T20:27:00.642Z,11.92
2018-11-07T20:29:29.120Z,11.90
2018-11-07T20:31:57.641Z,11.93
2018-11-07T20:34:26.181Z,11.91
2018-11-07T20:36:54.650Z,11.90
2018-11-07T20:39:23.089Z,11.92
2018-11-07T20:41:51.587Z,11.94
2018-11-07T20:44:20.054Z,11.93
2018-11-07T20:46:48.501Z,11.91
2018-11-07T20:49:16.983Z,11.85
2018-11-07T20:51:45.828Z,11.86
2018-11-07T20:54:14.329Z,11.88
2018-11-07T20:56:43.037Z,11.88
2018-11-07T20:59:11.468Z,11.85
2018-11-07T21:01:39.963Z,11.85
2018-11-07T21:04:08.380Z,11.86
2018-11-07T21:06:36.858Z,11.84
2018-11-07T21:09:08.293Z,11.87
2018-11-07T21:11:36.795Z,11.85
2018-11-07T21:14:05.903Z,11.85
2018-11-07T21:16:34.361Z,11.82
2018-11-07T21:19:02.895Z,11.81
2018-11-07T21:21:32.103Z,11.82
2018-11-07T21:24:00.699Z,11.82
2018-11-07T21:26:29.217Z,11.83
2018-11-07T21:28:57.709Z,11.83
2018-11-07T21:31:26.184Z,11.85
2018-11-07T21:33:54.757Z,11.86
2018-11-07T21:36:23.242Z,11.89
2018-11-07T21:38:51.817Z,11.90
2018-11-07T21:41:20.312Z,11.87
2018-11-07T21:43:48.826Z,11.86
2018-11-07T21:46:17.342Z,11.83
2018-11-07T21:48:45.734Z,11.83
2018-11-07T21:51:14.200Z,11.82
2018-11-07T21:53:42.691Z,11.79
2018-11-07T21:56:11.163Z,11.76
2018-11-07T21:58:39.594Z,11.72
2018-11-07T22:01:08.015Z,11.72
2018-11-07T22:03:36.497Z,11.71
2018-11-07T22:06:05.127Z,11.70
2018-11-07T22:08:33.591Z,11.69
2018-11-07T22:11:02.068Z,11.70
2018-11-07T22:13:30.450Z,11.71
2018-11-07T22:15:58.934Z,11.72
2018-11-07T22:18:27.376Z,11.73
2018-11-07T22:20:55.796Z,11.75
2018-11-07T22:23:24.237Z,11.77
2018-11-07T22:25:52.696Z,11.73
2018-11-07T22:28:21.137Z,11.71
2018-11-07T22:30:49.654Z,11.68
2018-11-07T22:33:18.135Z,11.66
2018-11-07T22:35:46.537Z,11.64
2018-11-07T22:38:14.960Z,11.62
2018-11-07T22:40:43.394Z,11.62
2018-11-07T22:43:11.849Z,11.59
2018-11-07T22:45:40.261Z,11.56
2018-11-07T22:48:08.701Z,11.53
2018-11-07T22:50:37.153Z,11.51
2018-11-07T22:53:05.667Z,11.52
2018-11-07T22:55:34.190Z,11.52
2018-11-07T22:58:02.625Z,11.48
2018-11-07T23:00:36.346Z,11.58
2018-11-07T23:03:05.137Z,11.59
2018-11-07T23:05:33.595Z,11.61
2018-11-07T23:08:02.055Z,11.59
2018-11-07T23:10:30.556Z,11.59
2018-11-07T23:12:59.015Z,11.59
2018-11-07T23:15:32.618Z,11.59
2018-11-07T23:18:01.021Z,11.59
2018-11-07T23:20:29.421Z,11.56
2018-11-07T23:22:57.826Z,11.53
2018-11-07T23:25:26.272Z,11.55
2018-11-07T23:27:54.733Z,11.54
2018-11-07T23:30:23.165Z,11.54
2018-11-07T23:32:51.609Z,11.53
2018-11-07T23:35:20.013Z,11.51
2018-11-07T23:37:48.469Z,11.49
2018-11-07T23:40:16.837Z,11.45
2018-11-07T23:42:45.233Z,11.43
2018-11-07T23:45:13.636Z,11.39
2018-11-07T23:47:42.053Z,11.36
2018-11-07T23:50:10.528Z,11.33
2018-11-07T23:52:44.413Z,11.34
2018-11-07T23:55:12.864Z,11.38
2018-11-07T23:57:41.285Z,11.39
